sensor_id;sensor_type;location;lat;lon;timestamp;temperature;humidity
4435;DHT22;46552;52.150;8.428;2022-11-25T00:00:03;6.60;99.90
4435;DHT22;46552;52.150;8.428;2022-11-25T00:02:31;6.60;99.90
4435;DHT22;46552;52.150;8.428;2022-11-25T00:04:58;6.60;99.90
4435;DHT22;46552;52.150;8.428;2022-11-25T00:07:25;6.50;99.90
4435;DHT22;46552;52.150;8.428;2022-11-25T00:09:51;6.50;99.90
4435;DHT22;46552;52.150;8.428;2022-11-25T00:12:20;6.40;99.90
4435;DHT22;46552;52.150;8.428;2022-11-25T00:14:47;6.40;99.90
4435;DHT22;46552;52.150;8.428;2022-11-25T00:17:14;6.40;99.90
4435;DHT22;46552;52.150;8.428;2022-11-25T00:19:41;6.40;99.90
4435;DHT22;46552;52.150;8.428;2022-11-25T00:22:08;6.40;99.90
4435;DHT22;46552;52.150;8.428;2022-11-25T00:24:35;6.40;99.90
4435;DHT22;46552;52.150;8.428;2022-11-25T00:27:03;6.40;99.90
4435;DHT22;46552;52.150;8.428;2022-11-25T00:29:33;6.40;99.90
4435;DHT22;46552;52.150;8.428;2022-11-25T00:32:00;6.40;99.90
4435;DHT22;46552;52.150;8.428;2022-11-25T00:34:27;6.40;99.90
4435;DHT22;46552;52.150;8.428;2022-11-25T00:36:55;6.50;99.90
4435;DHT22;46552;52.150;8.428;2022-11-25T00:39:22;6.50;99.90
4435;DHT22;46552;52.150;8.428;2022-11-25T00:41:51;6.50;99.90
4435;DHT22;46552;52.150;8.428;2022-11-25T00:44:37;6.50;99.90
4435;DHT22;46552;52.150;8.428;2022-11-25T00:47:08;6.60;99.90
4435;DHT22;46552;52.150;8.428;2022-11-25T00:49:37;6.50;99.90
4435;DHT22;46552;52.150;8.428;2022-11-25T00:52:05;6.50;99.90
4435;DHT22;46552;52.150;8.428;2022-11-25T00:54:34;6.60;99.90
4435;DHT22;46552;52.150;8.428;2022-11-25T00:57:01;6.60;99.90
4435;DHT22;46552;52.150;8.428;2022-11-25T00:59:28;6.60;99.90
4435;DHT22;46552;52.150;8.428;2022-11-25T01:01:56;6.50;99.90
4435;DHT22;46552;52.150;8.428;2022-11-25T01:04:24;6.50;99.90
4435;DHT22;46552;52.150;8.428;2022-11-25T01:06:51;6.50;99.90
4435;DHT22;46552;52.150;8.428;2022-11-25T01:09:21;6.50;99.90
4435;DHT22;46552;52.150;8.428;2022-11-25T01:11:49;6.50;99.90
4435;DHT22;46552;52.150;8.428;2022-11-25T01:14:16;6.40;99.90
4435;DHT22;46552;52.150;8.428;2022-11-25T01:16:43;6.40;99.90
4435;DHT22;46552;52.150;8.428;2022-11-25T01:19:13;6.40;99.90
4435;DHT22;46552;52.150;8.428;2022-11-25T01:21:41;6.30;99.90
4435;DHT22;46552;52.150;8.428;2022-11-25T01:24:12;6.30;99.90
4435;DHT22;46552;52.150;8.428;2022-11-25T01:26:40;6.20;99.90
4435;DHT22;46552;52.150;8.428;2022-11-25T01:29:12;6.20;99.90
4435;DHT22;46552;52.150;8.428;2022-11-25T01:31:40;6.20;99.90
4435;DHT22;46552;52.150;8.428;2022-11-25T01:34:13;6.10;99.90
4435;DHT22;46552;52.150;8.428;2022-11-25T01:36:41;6.10;99.90
4435;DHT22;46552;52.150;8.428;2022-11-25T01:39:13;6.00;99.90
4435;DHT22;46552;52.150;8.428;2022-11-25T01:41:42;6.00;99.90
4435;DHT22;46552;52.150;8.428;2022-11-25T01:44:13;6.00;99.90
4435;DHT22;46552;52.150;8.428;2022-11-25T01:47:02;6.00;99.90
4435;DHT22;46552;52.150;8.428;2022-11-25T01:49:35;6.00;99.90
4435;DHT22;46552;52.150;8.428;2022-11-25T01:52:09;6.00;99.90
4435;DHT22;46552;52.150;8.428;2022-11-25T01:54:42;5.90;99.90
4435;DHT22;46552;52.150;8.428;2022-11-25T01:57:15;5.90;99.90
4435;DHT22;46552;52.150;8.428;2022-11-25T01:59:45;5.90;99.90
4435;DHT22;46552;52.150;8.428;2022-11-25T02:02:15;5.90;99.90
4435;DHT22;46552;52.150;8.428;2022-11-25T02:04:46;5.90;99.90
4435;DHT22;46552;52.150;8.428;2022-11-25T02:07:19;5.90;99.90
4435;DHT22;46552;52.150;8.428;2022-11-25T02:09:49;5.90;99.90
4435;DHT22;46552;52.150;8.428;2022-11-25T02:12:17;5.90;99.90
4435;DHT22;46552;52.150;8.428;2022-11-25T02:14:47;5.90;99.90
4435;DHT22;46552;52.150;8.428;2022-11-25T02:17:14;5.90;99.90
4435;DHT22;46552;52.150;8.428;2022-11-25T02:19:52;6.00;99.90
4435;DHT22;46552;52.150;8.428;2022-11-25T02:22:26;6.00;99.90
4435;DHT22;46552;52.150;8.428;2022-11-25T02:25:05;6.00;99.90
4435;DHT22;46552;52.150;8.428;2022-11-25T02:27:35;6.10;99.90
4435;DHT22;46552;52.150;8.428;2022-11-25T02:30:03;6.10;99.90
4435;DHT22;46552;52.150;8.428;2022-11-25T02:32:30;6.10;99.90
4435;DHT22;46552;52.150;8.428;2022-11-25T02:34:57;6.10;99.90
4435;DHT22;46552;52.150;8.428;2022-11-25T02:37:24;6.10;99.90
4435;DHT22;46552;52.150;8.428;2022-11-25T02:39:52;6.10;99.90
4435;DHT22;46552;52.150;8.428;2022-11-25T02:42:23;6.10;99.90
4435;DHT22;46552;52.150;8.428;2022-11-25T02:44:51;6.10;99.90
4435;DHT22;46552;52.150;8.428;2022-11-25T02:47:18;6.10;99.90
4435;DHT22;46552;52.150;8.428;2022-11-25T02:49:45;6.20;99.90
4435;DHT22;46552;52.150;8.428;2022-11-25T02:52:13;6.10;99.90
4435;DHT22;46552;52.150;8.428;2022-11-25T02:54:41;6.10;99.90
4435;DHT22;46552;52.150;8.428;2022-11-25T02:57:08;6.20;99.90
4435;DHT22;46552;52.150;8.428;2022-11-25T02:59:39;6.20;99.90
4435;DHT22;46552;52.150;8.428;2022-11-25T03:02:06;6.20;99.90
4435;DHT22;46552;52.150;8.428;2022-11-25T03:04:34;6.20;99.90
4435;DHT22;46552;52.150;8.428;2022-11-25T03:07:03;6.20;99.90
4435;DHT22;46552;52.150;8.428;2022-11-25T03:09:30;6.20;99.90
4435;DHT22;46552;52.150;8.428;2022-11-25T03:11:58;6.20;99.90
4435;DHT22;46552;52.150;8.428;2022-11-25T03:14:44;6.20;99.90
4435;DHT22;46552;52.150;8.428;2022-11-25T03:17:13;6.20;99.90
4435;DHT22;46552;52.150;8.428;2022-11-25T03:19:40;6.20;99.90
4435;DHT22;46552;52.150;8.428;2022-11-25T03:22:08;6.20;99.90
4435;DHT22;46552;52.150;8.428;2022-11-25T03:24:35;6.20;99.90
4435;DHT22;46552;52.150;8.428;2022-11-25T03:27:03;8.20;99.90
4435;DHT22;46552;52.150;8.428;2022-11-25T03:29:30;6.20;99.90
4435;DHT22;46552;52.150;8.428;2022-11-25T03:31:59;6.20;99.90
4435;DHT22;46552;52.150;8.428;2022-11-25T03:34:26;6.20;99.90
4435;DHT22;46552;52.150;8.428;2022-11-25T03:36:53;6.20;99.90
4435;DHT22;46552;52.150;8.428;2022-11-25T03:39:20;6.20;99.90
4435;DHT22;46552;52.150;8.428;2022-11-25T03:41:48;6.20;99.90
4435;DHT22;46552;52.150;8.428;2022-11-25T03:44:15;6.20;99.90
4435;DHT22;46552;52.150;8.428;2022-11-25T03:46:43;6.30;99.90
4435;DHT22;46552;52.150;8.428;2022-11-25T03:49:12;6.30;99.90
4435;DHT22;46552;52.150;8.428;2022-11-25T03:51:40;6.30;99.90
4435;DHT22;46552;52.150;8.428;2022-11-25T03:54:07;6.30;99.90
4435;DHT22;46552;52.150;8.428;2022-11-25T03:56:34;6.30;99.90
4435;DHT22;46552;52.150;8.428;2022-11-25T03:59:01;6.30;99.90
4435;DHT22;46552;52.150;8.428;2022-11-25T04:01:30;6.40;99.90
4435;DHT22;46552;52.150;8.428;2022-11-25T04:03:57;6.40;99.90
4435;DHT22;46552;52.150;8.428;2022-11-25T04:06:25;6.40;99.90
4435;DHT22;46552;52.150;8.428;2022-11-25T04:08:52;6.50;99.90
4435;DHT22;46552;52.150;8.428;2022-11-25T04:11:19;6.50;99.90
4435;DHT22;46552;52.150;8.428;2022-11-25T04:13:46;6.50;99.90
4435;DHT22;46552;52.150;8.428;2022-11-25T04:16:18;6.50;99.90
4435;DHT22;46552;52.150;8.428;2022-11-25T04:18:46;6.50;99.90
4435;DHT22;46552;52.150;8.428;2022-11-25T04:21:13;6.50;99.90
4435;DHT22;46552;52.150;8.428;2022-11-25T04:23:41;6.60;99.90
4435;DHT22;46552;52.150;8.428;2022-11-25T04:26:08;6.50;99.90
4435;DHT22;46552;52.150;8.428;2022-11-25T04:28:35;6.60;99.90
4435;DHT22;46552;52.150;8.428;2022-11-25T04:31:05;6.50;99.90
4435;DHT22;46552;52.150;8.428;2022-11-25T04:33:35;6.60;99.90
4435;DHT22;46552;52.150;8.428;2022-11-25T04:36:02;6.60;99.90
4435;DHT22;46552;52.150;8.428;2022-11-25T04:38:29;6.60;99.90
4435;DHT22;46552;52.150;8.428;2022-11-25T04:40:59;6.60;99.90
4435;DHT22;46552;52.150;8.428;2022-11-25T04:43:26;6.60;99.90
4435;DHT22;46552;52.150;8.428;2022-11-25T04:45:53;6.60;99.90
4435;DHT22;46552;52.150;8.428;2022-11-25T04:48:22;6.70;99.90
4435;DHT22;46552;52.150;8.428;2022-11-25T04:50:49;6.70;99.90
4435;DHT22;46552;52.150;8.428;2022-11-25T04:53:16;6.70;99.90
4435;DHT22;46552;52.150;8.428;2022-11-25T04:55:43;6.70;99.90
4435;DHT22;46552;52.150;8.428;2022-11-25T04:58:14;6.70;99.90
4435;DHT22;46552;52.150;8.428;2022-11-25T05:01:02;6.70;99.90
4435;DHT22;46552;52.150;8.428;2022-11-25T05:03:28;6.70;99.90
4435;DHT22;46552;52.150;8.428;2022-11-25T05:05:56;6.70;99.90
4435;DHT22;46552;52.150;8.428;2022-11-25T05:08:23;6.70;99.90
4435;DHT22;46552;52.150;8.428;2022-11-25T05:10:50;6.70;99.90
4435;DHT22;46552;52.150;8.428;2022-11-25T05:13:19;6.80;99.90
4435;DHT22;46552;52.150;8.428;2022-11-25T05:15:46;6.80;99.90
4435;DHT22;46552;52.150;8.428;2022-11-25T05:18:13;6.80;99.90
4435;DHT22;46552;52.150;8.428;2022-11-25T05:20:41;6.80;99.90
4435;DHT22;46552;52.150;8.428;2022-11-25T05:23:08;6.80;99.90
4435;DHT22;46552;52.150;8.428;2022-11-25T05:25:35;6.80;99.90
4435;DHT22;46552;52.150;8.428;2022-11-25T05:28:03;6.70;99.90
4435;DHT22;46552;52.150;8.428;2022-11-25T05:30:32;6.80;99.90
4435;DHT22;46552;52.150;8.428;2022-11-25T05:32:59;6.80;99.90
4435;DHT22;46552;52.150;8.428;2022-11-25T05:35:27;6.80;99.90
4435;DHT22;46552;52.150;8.428;2022-11-25T05:37:54;6.80;99.90
4435;DHT22;46552;52.150;8.428;2022-11-25T05:40:22;6.80;99.90
4435;DHT22;46552;52.150;8.428;2022-11-25T05:42:49;6.80;99.90
4435;DHT22;46552;52.150;8.428;2022-11-25T05:45:17;6.80;99.90
4435;DHT22;46552;52.150;8.428;2022-11-25T05:47:45;6.80;99.90
4435;DHT22;46552;52.150;8.428;2022-11-25T05:50:12;6.80;99.90
4435;DHT22;46552;52.150;8.428;2022-11-25T05:52:40;6.80;99.90
4435;DHT22;46552;52.150;8.428;2022-11-25T05:55:08;6.80;99.90
4435;DHT22;46552;52.150;8.428;2022-11-25T05:57:35;6.80;99.90
4435;DHT22;46552;52.150;8.428;2022-11-25T06:00:03;6.80;99.90
4435;DHT22;46552;52.150;8.428;2022-11-25T06:02:31;6.90;99.90
4435;DHT22;46552;52.150;8.428;2022-11-25T06:05:00;6.90;99.90
4435;DHT22;46552;52.150;8.428;2022-11-25T06:07:27;6.90;99.90
4435;DHT22;46552;52.150;8.428;2022-11-25T06:09:54;7.00;99.90
4435;DHT22;46552;52.150;8.428;2022-11-25T06:12:21;6.90;99.90
4435;DHT22;46552;52.150;8.428;2022-11-25T06:14:50;7.00;99.90
4435;DHT22;46552;52.150;8.428;2022-11-25T06:17:17;7.00;99.90
4435;DHT22;46552;52.150;8.428;2022-11-25T06:19:45;7.00;99.90
4435;DHT22;46552;52.150;8.428;2022-11-25T06:22:15;7.00;99.90
4435;DHT22;46552;52.150;8.428;2022-11-25T06:24:42;7.00;99.90
4435;DHT22;46552;52.150;8.428;2022-11-25T06:27:09;7.00;99.90
4435;DHT22;46552;52.150;8.428;2022-11-25T06:29:36;7.00;99.90
4435;DHT22;46552;52.150;8.428;2022-11-25T06:32:04;7.00;99.90
4435;DHT22;46552;52.150;8.428;2022-11-25T06:34:31;7.00;99.90
4435;DHT22;46552;52.150;8.428;2022-11-25T06:37:01;7.10;99.90
4435;DHT22;46552;52.150;8.428;2022-11-25T06:39:29;7.10;99.90
4435;DHT22;46552;52.150;8.428;2022-11-25T06:41:56;7.10;99.90
4435;DHT22;46552;52.150;8.428;2022-11-25T06:44:23;7.10;99.90
4435;DHT22;46552;52.150;8.428;2022-11-25T06:46:51;7.10;99.90
4435;DHT22;46552;52.150;8.428;2022-11-25T06:49:18;7.10;99.90
4435;DHT22;46552;52.150;8.428;2022-11-25T06:51:45;7.10;99.90
4435;DHT22;46552;52.150;8.428;2022-11-25T06:54:13;7.10;99.90
4435;DHT22;46552;52.150;8.428;2022-11-25T06:56:42;7.10;99.90
4435;DHT22;46552;52.150;8.428;2022-11-25T06:59:09;7.20;99.90
4435;DHT22;46552;52.150;8.428;2022-11-25T07:01:36;7.20;99.90
4435;DHT22;46552;52.150;8.428;2022-11-25T07:04:04;7.20;99.90
4435;DHT22;46552;52.150;8.428;2022-11-25T07:06:32;7.20;99.90
4435;DHT22;46552;52.150;8.428;2022-11-25T07:08:59;7.20;99.90
4435;DHT22;46552;52.150;8.428;2022-11-25T07:11:28;7.30;99.90
4435;DHT22;46552;52.150;8.428;2022-11-25T07:14:00;7.30;99.90
4435;DHT22;46552;52.150;8.428;2022-11-25T07:16:28;7.40;99.90
4435;DHT22;46552;52.150;8.428;2022-11-25T07:18:58;7.40;99.90
4435;DHT22;46552;52.150;8.428;2022-11-25T07:21:27;7.50;99.90
4435;DHT22;46552;52.150;8.428;2022-11-25T07:23:54;7.60;99.90
4435;DHT22;46552;52.150;8.428;2022-11-25T07:26:24;7.60;99.90
4435;DHT22;46552;52.150;8.428;2022-11-25T07:28:53;7.70;99.90
4435;DHT22;46552;52.150;8.428;2022-11-25T07:31:23;7.70;99.90
4435;DHT22;46552;52.150;8.428;2022-11-25T07:33:52;7.80;99.90
4435;DHT22;46552;52.150;8.428;2022-11-25T07:36:20;7.80;99.90
4435;DHT22;46552;52.150;8.428;2022-11-25T07:38:48;7.90;99.90
4435;DHT22;46552;52.150;8.428;2022-11-25T07:41:16;7.90;99.90
4435;DHT22;46552;52.150;8.428;2022-11-25T07:43:45;7.90;99.90
4435;DHT22;46552;52.150;8.428;2022-11-25T07:46:15;8.00;99.90
4435;DHT22;46552;52.150;8.428;2022-11-25T07:48:44;8.00;99.90
4435;DHT22;46552;52.150;8.428;2022-11-25T07:51:16;8.00;99.90
4435;DHT22;46552;52.150;8.428;2022-11-25T07:53:46;8.10;99.90
4435;DHT22;46552;52.150;8.428;2022-11-25T07:56:14;8.10;99.90
4435;DHT22;46552;52.150;8.428;2022-11-25T07:58:42;8.20;99.90
4435;DHT22;46552;52.150;8.428;2022-11-25T08:01:10;8.20;99.90
4435;DHT22;46552;52.150;8.428;2022-11-25T08:03:40;8.30;99.90
4435;DHT22;46552;52.150;8.428;2022-11-25T08:06:11;8.30;99.90
4435;DHT22;46552;52.150;8.428;2022-11-25T08:08:39;8.40;99.90
4435;DHT22;46552;52.150;8.428;2022-11-25T08:11:07;8.40;99.90
4435;DHT22;46552;52.150;8.428;2022-11-25T08:13:34;8.40;99.90
4435;DHT22;46552;52.150;8.428;2022-11-25T08:16:02;8.50;99.90
4435;DHT22;46552;52.150;8.428;2022-11-25T08:18:30;8.50;99.90
4435;DHT22;46552;52.150;8.428;2022-11-25T08:20:59;8.60;99.90
4435;DHT22;46552;52.150;8.428;2022-11-25T08:23:27;8.60;99.90
4435;DHT22;46552;52.150;8.428;2022-11-25T08:25:55;8.60;99.90
4435;DHT22;46552;52.150;8.428;2022-11-25T08:28:22;8.60;99.90
4435;DHT22;46552;52.150;8.428;2022-11-25T08:30:49;8.60;99.90
4435;DHT22;46552;52.150;8.428;2022-11-25T08:33:17;8.60;99.90
4435;DHT22;46552;52.150;8.428;2022-11-25T08:35:52;8.60;99.90
4435;DHT22;46552;52.150;8.428;2022-11-25T08:38:19;8.70;99.90
4435;DHT22;46552;52.150;8.428;2022-11-25T08:40:47;8.60;99.90
4435;DHT22;46552;52.150;8.428;2022-11-25T08:43:14;8.60;99.90
4435;DHT22;46552;52.150;8.428;2022-11-25T08:45:42;8.60;99.90
4435;DHT22;46552;52.150;8.428;2022-11-25T08:48:09;8.60;99.90
4435;DHT22;46552;52.150;8.428;2022-11-25T08:50:36;8.60;99.90
4435;DHT22;46552;52.150;8.428;2022-11-25T08:53:03;8.60;99.90
4435;DHT22;46552;52.150;8.428;2022-11-25T08:55:30;8.60;99.90
4435;DHT22;46552;52.150;8.428;2022-11-25T08:57:59;8.60;99.90
4435;DHT22;46552;52.150;8.428;2022-11-25T09:00:26;8.60;99.90
4435;DHT22;46552;52.150;8.428;2022-11-25T09:02:53;8.60;99.90
4435;DHT22;46552;52.150;8.428;2022-11-25T09:05:21;8.50;99.90
4435;DHT22;46552;52.150;8.428;2022-11-25T09:07:48;8.60;99.90
4435;DHT22;46552;52.150;8.428;2022-11-25T09:10:16;8.60;99.90
4435;DHT22;46552;52.150;8.428;2022-11-25T09:12:43;8.60;99.90
4435;DHT22;46552;52.150;8.428;2022-11-25T09:15:12;8.60;99.90
4435;DHT22;46552;52.150;8.428;2022-11-25T09:17:40;8.60;99.90
4435;DHT22;46552;52.150;8.428;2022-11-25T09:20:08;8.60;99.90
4435;DHT22;46552;52.150;8.428;2022-11-25T09:22:36;8.70;99.90
4435;DHT22;46552;52.150;8.428;2022-11-25T09:25:03;8.70;99.90
4435;DHT22;46552;52.150;8.428;2022-11-25T09:27:30;8.70;99.90
4435;DHT22;46552;52.150;8.428;2022-11-25T09:29:58;8.70;99.90
4435;DHT22;46552;52.150;8.428;2022-11-25T09:32:26;8.70;99.90
4435;DHT22;46552;52.150;8.428;2022-11-25T09:34:53;8.70;99.90
4435;DHT22;46552;52.150;8.428;2022-11-25T09:37:21;8.80;99.90
4435;DHT22;46552;52.150;8.428;2022-11-25T09:39:48;8.80;99.90
4435;DHT22;46552;52.150;8.428;2022-11-25T09:42:27;8.80;99.90
4435;DHT22;46552;52.150;8.428;2022-11-25T09:45:16;8.90;99.90
4435;DHT22;46552;52.150;8.428;2022-11-25T09:48:15;8.90;99.90
4435;DHT22;46552;52.150;8.428;2022-11-25T09:50:55;9.00;99.90
4435;DHT22;46552;52.150;8.428;2022-11-25T09:53:37;9.00;99.90
4435;DHT22;46552;52.150;8.428;2022-11-25T09:56:16;9.10;99.90
4435;DHT22;46552;52.150;8.428;2022-11-25T09:58:49;9.10;99.90
4435;DHT22;46552;52.150;8.428;2022-11-25T10:01:22;9.20;99.90
4435;DHT22;46552;52.150;8.428;2022-11-25T10:03:56;9.30;99.90
4435;DHT22;46552;52.150;8.428;2022-11-25T10:06:27;9.40;99.90
4435;DHT22;46552;52.150;8.428;2022-11-25T10:08:57;9.40;99.90
4435;DHT22;46552;52.150;8.428;2022-11-25T10:11:43;9.50;99.90
4435;DHT22;46552;52.150;8.428;2022-11-25T10:14:20;9.50;99.90
4435;DHT22;46552;52.150;8.428;2022-11-25T10:16:57;9.50;99.90
4435;DHT22;46552;52.150;8.428;2022-11-25T10:19:37;9.60;99.90
4435;DHT22;46552;52.150;8.428;2022-11-25T10:22:16;9.80;99.90
4435;DHT22;46552;52.150;8.428;2022-11-25T10:24:45;10.30;99.90
4435;DHT22;46552;52.150;8.428;2022-11-25T10:27:17;11.80;99.90
4435;DHT22;46552;52.150;8.428;2022-11-25T10:29:46;12.60;99.90
4435;DHT22;46552;52.150;8.428;2022-11-25T10:32:21;12.80;99.90
4435;DHT22;46552;52.150;8.428;2022-11-25T10:34:56;12.80;99.90
4435;DHT22;46552;52.150;8.428;2022-11-25T10:37:27;12.80;99.90
4435;DHT22;46552;52.150;8.428;2022-11-25T10:39:55;12.50;99.90
4435;DHT22;46552;52.150;8.428;2022-11-25T10:42:24;12.60;99.90
4435;DHT22;46552;52.150;8.428;2022-11-25T10:44:52;12.50;99.90
4435;DHT22;46552;52.150;8.428;2022-11-25T10:47:33;12.40;99.90
4435;DHT22;46552;52.150;8.428;2022-11-25T10:50:14;12.30;99.90
4435;DHT22;46552;52.150;8.428;2022-11-25T10:52:47;12.20;99.90
4435;DHT22;46552;52.150;8.428;2022-11-25T10:55:18;12.10;99.90
4435;DHT22;46552;52.150;8.428;2022-11-25T10:57:46;12.00;99.90
4435;DHT22;46552;52.150;8.428;2022-11-25T11:00:29;11.80;99.90
4435;DHT22;46552;52.150;8.428;2022-11-25T11:03:00;11.60;99.90
4435;DHT22;46552;52.150;8.428;2022-11-25T11:05:44;11.50;99.90
4435;DHT22;46552;52.150;8.428;2022-11-25T11:08:21;11.30;99.90
4435;DHT22;46552;52.150;8.428;2022-11-25T11:11:12;11.20;99.90
4435;DHT22;46552;52.150;8.428;2022-11-25T11:13:41;11.10;99.90
4435;DHT22;46552;52.150;8.428;2022-11-25T11:16:23;11.00;99.90
4435;DHT22;46552;52.150;8.428;2022-11-25T11:18:51;11.00;99.90
4435;DHT22;46552;52.150;8.428;2022-11-25T11:21:30;11.00;99.90
4435;DHT22;46552;52.150;8.428;2022-11-25T11:23:58;11.00;99.90
4435;DHT22;46552;52.150;8.428;2022-11-25T11:26:27;10.90;99.90
4435;DHT22;46552;52.150;8.428;2022-11-25T11:29:00;11.00;99.90
4435;DHT22;46552;52.150;8.428;2022-11-25T11:31:31;11.00;99.90
4435;DHT22;46552;52.150;8.428;2022-11-25T11:34:09;11.10;99.90
4435;DHT22;46552;52.150;8.428;2022-11-25T11:36:51;11.20;99.90
4435;DHT22;46552;52.150;8.428;2022-11-25T11:39:32;11.10;99.90
4435;DHT22;46552;52.150;8.428;2022-11-25T11:42:08;11.10;99.90
4435;DHT22;46552;52.150;8.428;2022-11-25T11:44:51;11.20;99.90
4435;DHT22;46552;52.150;8.428;2022-11-25T11:47:26;11.30;99.90
4435;DHT22;46552;52.150;8.428;2022-11-25T11:50:21;11.50;99.90
4435;DHT22;46552;52.150;8.428;2022-11-25T11:52:57;11.90;99.90
4435;DHT22;46552;52.150;8.428;2022-11-25T11:55:38;12.20;99.90
4435;DHT22;46552;52.150;8.428;2022-11-25T11:58:18;12.60;99.90
4435;DHT22;46552;52.150;8.428;2022-11-25T12:00:59;13.00;99.90
4435;DHT22;46552;52.150;8.428;2022-11-25T12:03:37;13.30;99.90
4435;DHT22;46552;52.150;8.428;2022-11-25T12:06:05;13.50;99.90
4435;DHT22;46552;52.150;8.428;2022-11-25T12:08:46;13.60;99.90
4435;DHT22;46552;52.150;8.428;2022-11-25T12:11:19;13.90;99.90
4435;DHT22;46552;52.150;8.428;2022-11-25T12:13:49;14.00;99.90
4435;DHT22;46552;52.150;8.428;2022-11-25T12:16:24;14.20;99.90
4435;DHT22;46552;52.150;8.428;2022-11-25T12:18:57;14.30;99.90
4435;DHT22;46552;52.150;8.428;2022-11-25T12:21:36;14.30;99.90
4435;DHT22;46552;52.150;8.428;2022-11-25T12:24:13;14.30;99.90
4435;DHT22;46552;52.150;8.428;2022-11-25T12:26:48;14.30;99.90
4435;DHT22;46552;52.150;8.428;2022-11-25T12:29:22;14.30;99.90
4435;DHT22;46552;52.150;8.428;2022-11-25T12:31:52;14.40;99.90
4435;DHT22;46552;52.150;8.428;2022-11-25T12:34:26;14.40;99.90
4435;DHT22;46552;52.150;8.428;2022-11-25T12:37:04;14.40;99.90
4435;DHT22;46552;52.150;8.428;2022-11-25T12:39:38;14.30;99.90
4435;DHT22;46552;52.150;8.428;2022-11-25T12:42:13;14.30;99.90
4435;DHT22;46552;52.150;8.428;2022-11-25T12:44:51;14.40;99.90
4435;DHT22;46552;52.150;8.428;2022-11-25T12:47:20;14.40;99.90
4435;DHT22;46552;52.150;8.428;2022-11-25T12:49:49;14.40;99.90
4435;DHT22;46552;52.150;8.428;2022-11-25T12:52:28;14.40;99.90
4435;DHT22;46552;52.150;8.428;2022-11-25T12:55:10;14.40;99.90
4435;DHT22;46552;52.150;8.428;2022-11-25T12:58:16;14.50;99.90
4435;DHT22;46552;52.150;8.428;2022-11-25T13:01:19;14.60;99.90
4435;DHT22;46552;52.150;8.428;2022-11-25T13:04:18;14.60;99.90
4435;DHT22;46552;52.150;8.428;2022-11-25T13:07:20;14.60;99.90
4435;DHT22;46552;52.150;8.428;2022-11-25T13:13:22;14.50;99.90
4435;DHT22;46552;52.150;8.428;2022-11-25T13:15:51;14.60;99.90
4435;DHT22;46552;52.150;8.428;2022-11-25T13:18:21;14.50;99.90
4435;DHT22;46552;52.150;8.428;2022-11-25T13:20:49;14.50;99.90
4435;DHT22;46552;52.150;8.428;2022-11-25T13:23:28;14.40;99.90
4435;DHT22;46552;52.150;8.428;2022-11-25T13:29:06;14.40;99.90
4435;DHT22;46552;52.150;8.428;2022-11-25T13:31:57;14.40;99.90
4435;DHT22;46552;52.150;8.428;2022-11-25T13:34:26;14.30;99.90
4435;DHT22;46552;52.150;8.428;2022-11-25T13:36:55;14.20;99.90
4435;DHT22;46552;52.150;8.428;2022-11-25T13:39:30;14.00;99.90
4435;DHT22;46552;52.150;8.428;2022-11-25T13:42:04;14.00;99.90
4435;DHT22;46552;52.150;8.428;2022-11-25T13:44:49;13.80;99.90
4435;DHT22;46552;52.150;8.428;2022-11-25T13:47:32;13.70;99.90
4435;DHT22;46552;52.150;8.428;2022-11-25T13:50:02;13.50;99.90
4435;DHT22;46552;52.150;8.428;2022-11-25T13:52:37;13.40;99.90
4435;DHT22;46552;52.150;8.428;2022-11-25T13:55:24;13.20;99.90
4435;DHT22;46552;52.150;8.428;2022-11-25T13:58:05;13.10;99.90
4435;DHT22;46552;52.150;8.428;2022-11-25T14:01:01;13.00;99.90
4435;DHT22;46552;52.150;8.428;2022-11-25T14:03:48;13.00;99.90
4435;DHT22;46552;52.150;8.428;2022-11-25T14:06:30;12.90;99.90
4435;DHT22;46552;52.150;8.428;2022-11-25T14:09:03;12.90;99.90
4435;DHT22;46552;52.150;8.428;2022-11-25T14:11:43;12.90;99.90
4435;DHT22;46552;52.150;8.428;2022-11-25T14:14:25;12.90;99.90
4435;DHT22;46552;52.150;8.428;2022-11-25T14:17:05;12.90;99.90
4435;DHT22;46552;52.150;8.428;2022-11-25T14:23:08;12.70;99.90
4435;DHT22;46552;52.150;8.428;2022-11-25T14:25:46;12.60;99.90
4435;DHT22;46552;52.150;8.428;2022-11-25T14:28:23;12.50;99.90
4435;DHT22;46552;52.150;8.428;2022-11-25T14:30:55;12.40;99.90
4435;DHT22;46552;52.150;8.428;2022-11-25T14:33:31;12.30;99.90
4435;DHT22;46552;52.150;8.428;2022-11-25T14:36:03;12.20;99.90
4435;DHT22;46552;52.150;8.428;2022-11-25T14:38:37;12.10;99.90
4435;DHT22;46552;52.150;8.428;2022-11-25T14:41:09;11.90;99.90
4435;DHT22;46552;52.150;8.428;2022-11-25T14:43:39;11.80;99.90
4435;DHT22;46552;52.150;8.428;2022-11-25T14:46:10;11.70;99.90
4435;DHT22;46552;52.150;8.428;2022-11-25T14:48:42;11.60;99.90
4435;DHT22;46552;52.150;8.428;2022-11-25T14:51:11;11.60;99.90
4435;DHT22;46552;52.150;8.428;2022-11-25T14:53:42;11.50;99.90
4435;DHT22;46552;52.150;8.428;2022-11-25T14:56:10;11.40;99.90
4435;DHT22;46552;52.150;8.428;2022-11-25T14:58:39;11.40;99.90
4435;DHT22;46552;52.150;8.428;2022-11-25T15:01:16;11.30;99.90
4435;DHT22;46552;52.150;8.428;2022-11-25T15:03:47;11.30;99.90
4435;DHT22;46552;52.150;8.428;2022-11-25T15:06:15;11.30;99.90
4435;DHT22;46552;52.150;8.428;2022-11-25T15:08:52;11.30;99.90
4435;DHT22;46552;52.150;8.428;2022-11-25T15:11:23;11.20;99.90
4435;DHT22;46552;52.150;8.428;2022-11-25T15:13:53;11.20;99.90
4435;DHT22;46552;52.150;8.428;2022-11-25T15:16:29;11.20;99.90
4435;DHT22;46552;52.150;8.428;2022-11-25T15:19:00;11.20;99.90
4435;DHT22;46552;52.150;8.428;2022-11-25T15:21:29;11.20;99.90
4435;DHT22;46552;52.150;8.428;2022-11-25T15:23:58;11.20;99.90
4435;DHT22;46552;52.150;8.428;2022-11-25T15:26:27;11.20;99.90
4435;DHT22;46552;52.150;8.428;2022-11-25T15:28:57;11.20;99.90
4435;DHT22;46552;52.150;8.428;2022-11-25T15:31:26;11.10;99.90
4435;DHT22;46552;52.150;8.428;2022-11-25T15:33:58;11.10;99.90
4435;DHT22;46552;52.150;8.428;2022-11-25T15:36:26;11.10;99.90
4435;DHT22;46552;52.150;8.428;2022-11-25T15:41:31;11.00;99.90
4435;DHT22;46552;52.150;8.428;2022-11-25T15:43:59;11.00;99.90
4435;DHT22;46552;52.150;8.428;2022-11-25T15:46:28;10.90;99.90
4435;DHT22;46552;52.150;8.428;2022-11-25T15:49:01;10.90;99.90
4435;DHT22;46552;52.150;8.428;2022-11-25T15:51:33;10.80;99.90
4435;DHT22;46552;52.150;8.428;2022-11-25T15:54:04;10.80;99.90
4435;DHT22;46552;52.150;8.428;2022-11-25T15:56:36;10.70;99.90
4435;DHT22;46552;52.150;8.428;2022-11-25T15:59:04;10.70;99.90
4435;DHT22;46552;52.150;8.428;2022-11-25T16:01:32;10.70;99.90
4435;DHT22;46552;52.150;8.428;2022-11-25T16:04:15;10.70;99.90
4435;DHT22;46552;52.150;8.428;2022-11-25T16:06:52;10.70;99.90
4435;DHT22;46552;52.150;8.428;2022-11-25T16:09:21;10.70;99.90
4435;DHT22;46552;52.150;8.428;2022-11-25T16:11:50;10.70;99.90
4435;DHT22;46552;52.150;8.428;2022-11-25T16:14:23;10.70;99.90
4435;DHT22;46552;52.150;8.428;2022-11-25T16:16:59;10.70;99.90
4435;DHT22;46552;52.150;8.428;2022-11-25T16:19:30;10.70;99.90
4435;DHT22;46552;52.150;8.428;2022-11-25T16:22:01;10.70;99.90
4435;DHT22;46552;52.150;8.428;2022-11-25T16:24:40;10.70;99.90
4435;DHT22;46552;52.150;8.428;2022-11-25T16:27:17;10.70;99.90
4435;DHT22;46552;52.150;8.428;2022-11-25T16:29:51;10.70;99.90
4435;DHT22;46552;52.150;8.428;2022-11-25T16:32:20;10.70;99.90
4435;DHT22;46552;52.150;8.428;2022-11-25T16:34:49;10.70;99.90